sensor_id;sensor_type;location;lat;lon;timestamp;P1;durP1;ratioP1;P2;durP2;ratioP2
34471;SDS011;20710;49.976;19.836;2022-10-17T00:00:39;28.15;;;16.30;;
34471;SDS011;20710;49.976;19.836;2022-10-17T00:06:43;24.75;;;16.10;;
34471;SDS011;20710;49.976;19.836;2022-10-17T00:12:45;23.27;;;13.55;;
34471;SDS011;20710;49.976;19.836;2022-10-17T00:18:47;17.32;;;12.10;;
34471;SDS011;20710;49.976;19.836;2022-10-17T00:24:48;27.82;;;14.23;;
34471;SDS011;20710;49.976;19.836;2022-10-17T00:31:00;27.82;;;13.18;;
34471;SDS011;20710;49.976;19.836;2022-10-17T00:37:04;21.93;;;13.15;;
34471;SDS011;20710;49.976;19.836;2022-10-17T00:43:11;31.68;;;15.48;;
34471;SDS011;20710;49.976;19.836;2022-10-17T00:49:15;24.82;;;14.58;;
34471;SDS011;20710;49.976;19.836;2022-10-17T00:55:19;25.85;;;15.28;;
34471;SDS011;20710;49.976;19.836;2022-10-17T01:01:30;24.65;;;15.18;;
34471;SDS011;20710;49.976;19.836;2022-10-17T01:07:32;26.52;;;14.80;;
34471;SDS011;20710;49.976;19.836;2022-10-17T01:13:43;28.02;;;17.23;;
34471;SDS011;20710;49.976;19.836;2022-10-17T01:26:36;23.95;;;14.93;;
34471;SDS011;20710;49.976;19.836;2022-10-17T01:32:59;28.55;;;16.62;;
34471;SDS011;20710;49.976;19.836;2022-10-17T01:39:16;21.37;;;12.63;;
34471;SDS011;20710;49.976;19.836;2022-10-17T01:45:52;27.67;;;14.13;;
34471;SDS011;20710;49.976;19.836;2022-10-17T01:52:02;27.50;;;17.05;;
34471;SDS011;20710;49.976;19.836;2022-10-17T01:58:21;26.50;;;17.17;;
34471;SDS011;20710;49.976;19.836;2022-10-17T02:04:42;27.75;;;15.55;;
34471;SDS011;20710;49.976;19.836;2022-10-17T02:10:53;25.40;;;16.90;;
34471;SDS011;20710;49.976;19.836;2022-10-17T02:17:04;24.00;;;13.95;;
34471;SDS011;20710;49.976;19.836;2022-10-17T02:23:45;26.37;;;15.75;;
34471;SDS011;20710;49.976;19.836;2022-10-17T02:30:07;29.72;;;17.17;;
34471;SDS011;20710;49.976;19.836;2022-10-17T02:36:14;22.77;;;14.75;;
34471;SDS011;20710;49.976;19.836;2022-10-17T02:42:22;26.57;;;14.40;;
34471;SDS011;20710;49.976;19.836;2022-10-17T02:48:26;27.10;;;16.55;;
34471;SDS011;20710;49.976;19.836;2022-10-17T03:00:45;25.05;;;12.53;;
34471;SDS011;20710;49.976;19.836;2022-10-17T03:06:47;20.23;;;13.13;;
34471;SDS011;20710;49.976;19.836;2022-10-17T03:12:49;19.12;;;11.48;;
34471;SDS011;20710;49.976;19.836;2022-10-17T03:18:50;22.02;;;13.50;;
34471;SDS011;20710;49.976;19.836;2022-10-17T03:24:53;18.02;;;12.70;;
34471;SDS011;20710;49.976;19.836;2022-10-17T03:30:54;23.47;;;15.25;;
34471;SDS011;20710;49.976;19.836;2022-10-17T03:36:56;21.87;;;15.18;;
34471;SDS011;20710;49.976;19.836;2022-10-17T03:42:58;23.40;;;14.60;;
34471;SDS011;20710;49.976;19.836;2022-10-17T03:49:00;23.50;;;13.58;;
34471;SDS011;20710;49.976;19.836;2022-10-17T03:55:02;26.40;;;15.75;;
34471;SDS011;20710;49.976;19.836;2022-10-17T04:01:04;27.42;;;15.13;;
34471;SDS011;20710;49.976;19.836;2022-10-17T04:07:08;20.17;;;13.13;;
34471;SDS011;20710;49.976;19.836;2022-10-17T04:13:11;18.65;;;11.55;;
34471;SDS011;20710;49.976;19.836;2022-10-17T04:19:13;19.77;;;12.90;;
34471;SDS011;20710;49.976;19.836;2022-10-17T04:25:16;23.67;;;13.90;;
34471;SDS011;20710;49.976;19.836;2022-10-17T04:31:19;22.65;;;15.00;;
34471;SDS011;20710;49.976;19.836;2022-10-17T04:37:31;19.82;;;12.45;;
34471;SDS011;20710;49.976;19.836;2022-10-17T04:43:37;23.67;;;14.50;;
34471;SDS011;20710;49.976;19.836;2022-10-17T04:49:40;17.65;;;11.43;;
34471;SDS011;20710;49.976;19.836;2022-10-17T04:55:43;20.35;;;12.70;;
34471;SDS011;20710;49.976;19.836;2022-10-17T05:01:45;18.62;;;12.20;;
34471;SDS011;20710;49.976;19.836;2022-10-17T05:07:48;16.32;;;11.68;;
34471;SDS011;20710;49.976;19.836;2022-10-17T05:13:52;22.37;;;14.58;;
34471;SDS011;20710;49.976;19.836;2022-10-17T05:19:56;26.02;;;15.53;;
34471;SDS011;20710;49.976;19.836;2022-10-17T05:32:25;23.70;;;13.13;;
34471;SDS011;20710;49.976;19.836;2022-10-17T05:38:26;19.45;;;14.47;;
34471;SDS011;20710;49.976;19.836;2022-10-17T05:44:29;21.02;;;12.05;;
34471;SDS011;20710;49.976;19.836;2022-10-17T05:50:32;21.48;;;12.63;;
34471;SDS011;20710;49.976;19.836;2022-10-17T05:56:35;23.73;;;13.20;;
34471;SDS011;20710;49.976;19.836;2022-10-17T06:02:37;22.15;;;13.53;;
34471;SDS011;20710;49.976;19.836;2022-10-17T06:08:41;20.50;;;13.38;;
34471;SDS011;20710;49.976;19.836;2022-10-17T06:14:45;28.05;;;18.50;;
34471;SDS011;20710;49.976;19.836;2022-10-17T06:20:48;30.57;;;18.45;;
34471;SDS011;20710;49.976;19.836;2022-10-17T06:26:51;25.43;;;17.25;;
34471;SDS011;20710;49.976;19.836;2022-10-17T06:32:54;29.50;;;20.35;;
34471;SDS011;20710;49.976;19.836;2022-10-17T06:38:56;37.93;;;23.73;;
34471;SDS011;20710;49.976;19.836;2022-10-17T06:45:05;40.05;;;24.18;;
34471;SDS011;20710;49.976;19.836;2022-10-17T06:51:16;36.85;;;23.32;;
34471;SDS011;20710;49.976;19.836;2022-10-17T07:03:26;34.33;;;22.25;;
34471;SDS011;20710;49.976;19.836;2022-10-17T07:09:28;30.82;;;19.82;;
34471;SDS011;20710;49.976;19.836;2022-10-17T07:15:32;33.05;;;19.85;;
34471;SDS011;20710;49.976;19.836;2022-10-17T07:21:33;27.65;;;17.95;;
34471;SDS011;20710;49.976;19.836;2022-10-17T07:27:35;28.15;;;17.07;;
34471;SDS011;20710;49.976;19.836;2022-10-17T07:33:36;25.60;;;16.12;;
34471;SDS011;20710;49.976;19.836;2022-10-17T07:39:38;22.50;;;15.45;;
34471;SDS011;20710;49.976;19.836;2022-10-17T07:45:40;25.12;;;15.83;;
34471;SDS011;20710;49.976;19.836;2022-10-17T07:51:46;20.45;;;13.50;;
34471;SDS011;20710;49.976;19.836;2022-10-17T07:57:49;17.90;;;12.18;;
34471;SDS011;20710;49.976;19.836;2022-10-17T08:03:50;19.30;;;13.48;;
34471;SDS011;20710;49.976;19.836;2022-10-17T08:09:55;19.50;;;12.20;;
34471;SDS011;20710;49.976;19.836;2022-10-17T08:16:03;23.20;;;14.43;;
34471;SDS011;20710;49.976;19.836;2022-10-17T08:22:08;22.25;;;15.08;;
34471;SDS011;20710;49.976;19.836;2022-10-17T08:28:10;19.62;;;13.85;;
34471;SDS011;20710;49.976;19.836;2022-10-17T08:40:29;22.98;;;13.32;;
34471;SDS011;20710;49.976;19.836;2022-10-17T08:46:40;20.20;;;13.65;;
34471;SDS011;20710;49.976;19.836;2022-10-17T08:52:53;23.18;;;12.03;;
34471;SDS011;20710;49.976;19.836;2022-10-17T08:59:09;15.65;;;10.43;;
34471;SDS011;20710;49.976;19.836;2022-10-17T09:05:43;12.07;;;9.20;;
34471;SDS011;20710;49.976;19.836;2022-10-17T09:12:18;11.00;;;8.63;;
34471;SDS011;20710;49.976;19.836;2022-10-17T09:18:45;13.53;;;8.38;;
34471;SDS011;20710;49.976;19.836;2022-10-17T09:24:53;14.70;;;8.43;;
34471;SDS011;20710;49.976;19.836;2022-10-17T09:31:17;11.30;;;7.92;;
34471;SDS011;20710;49.976;19.836;2022-10-17T09:37:43;10.23;;;7.28;;
34471;SDS011;20710;49.976;19.836;2022-10-17T09:43:48;10.25;;;7.10;;
34471;SDS011;20710;49.976;19.836;2022-10-17T09:49:56;12.88;;;7.05;;
34471;SDS011;20710;49.976;19.836;2022-10-17T10:02:27;10.82;;;6.00;;
34471;SDS011;20710;49.976;19.836;2022-10-17T10:15:37;9.20;;;5.65;;
34471;SDS011;20710;49.976;19.836;2022-10-17T10:22:21;7.30;;;5.55;;
34471;SDS011;20710;49.976;19.836;2022-10-17T10:28:53;7.75;;;5.67;;
34471;SDS011;20710;49.976;19.836;2022-10-17T10:47:58;9.33;;;5.40;;
34471;SDS011;20710;49.976;19.836;2022-10-17T11:00:43;10.08;;;6.20;;
34471;SDS011;20710;49.976;19.836;2022-10-17T11:06:46;6.40;;;5.25;;
34471;SDS011;20710;49.976;19.836;2022-10-17T11:19:42;7.30;;;5.80;;
34471;SDS011;20710;49.976;19.836;2022-10-17T11:25:37;7.12;;;5.72;;
34471;SDS011;20710;49.976;19.836;2022-10-17T11:31:43;11.28;;;6.08;;
34471;SDS011;20710;49.976;19.836;2022-10-17T11:38:19;9.13;;;6.50;;
34471;SDS011;20710;49.976;19.836;2022-10-17T11:44:51;8.60;;;6.10;;
34471;SDS011;20710;49.976;19.836;2022-10-17T11:51:10;8.33;;;5.67;;
34471;SDS011;20710;49.976;19.836;2022-10-17T12:03:58;7.42;;;5.55;;
34471;SDS011;20710;49.976;19.836;2022-10-17T12:16:49;8.38;;;6.75;;
34471;SDS011;20710;49.976;19.836;2022-10-17T12:22:55;7.50;;;5.75;;
34471;SDS011;20710;49.976;19.836;2022-10-17T12:29:22;6.42;;;5.65;;
34471;SDS011;20710;49.976;19.836;2022-10-17T12:35:26;12.55;;;6.65;;
34471;SDS011;20710;49.976;19.836;2022-10-17T12:47:43;12.00;;;6.42;;
34471;SDS011;20710;49.976;19.836;2022-10-17T13:00:11;6.60;;;5.90;;
34471;SDS011;20710;49.976;19.836;2022-10-17T13:13:53;7.05;;;5.80;;
34471;SDS011;20710;49.976;19.836;2022-10-17T13:19:58;10.28;;;5.85;;
34471;SDS011;20710;49.976;19.836;2022-10-17T13:32:25;8.33;;;5.28;;
34471;SDS011;20710;49.976;19.836;2022-10-17T13:38:37;6.80;;;5.10;;
34471;SDS011;20710;49.976;19.836;2022-10-17T13:44:38;8.13;;;4.95;;
34471;SDS011;20710;49.976;19.836;2022-10-17T13:50:41;7.30;;;4.72;;
34471;SDS011;20710;49.976;19.836;2022-10-17T13:56:43;5.47;;;4.80;;
34471;SDS011;20710;49.976;19.836;2022-10-17T14:02:45;9.45;;;5.37;;
34471;SDS011;20710;49.976;19.836;2022-10-17T14:08:58;7.65;;;5.75;;
34471;SDS011;20710;49.976;19.836;2022-10-17T14:21:47;9.58;;;5.60;;
34471;SDS011;20710;49.976;19.836;2022-10-17T14:28:00;12.90;;;5.80;;
34471;SDS011;20710;49.976;19.836;2022-10-17T14:34:03;8.85;;;5.12;;
34471;SDS011;20710;49.976;19.836;2022-10-17T14:40:05;13.08;;;7.12;;
34471;SDS011;20710;49.976;19.836;2022-10-17T14:46:12;9.38;;;5.00;;
34471;SDS011;20710;49.976;19.836;2022-10-17T14:58:25;28.17;;;7.53;;
34471;SDS011;20710;49.976;19.836;2022-10-17T15:04:29;19.20;;;12.68;;
34471;SDS011;20710;49.976;19.836;2022-10-17T15:10:32;16.00;;;11.63;;
34471;SDS011;20710;49.976;19.836;2022-10-17T15:16:36;13.05;;;8.65;;
34471;SDS011;20710;49.976;19.836;2022-10-17T15:22:39;14.10;;;7.35;;
34471;SDS011;20710;49.976;19.836;2022-10-17T15:28:40;19.82;;;7.45;;
34471;SDS011;20710;49.976;19.836;2022-10-17T15:34:42;48.55;;;25.02;;
34471;SDS011;20710;49.976;19.836;2022-10-17T15:40:54;23.57;;;9.80;;
34471;SDS011;20710;49.976;19.836;2022-10-17T15:47:02;21.37;;;10.23;;
34471;SDS011;20710;49.976;19.836;2022-10-17T15:59:38;17.98;;;8.25;;
34471;SDS011;20710;49.976;19.836;2022-10-17T16:05:41;24.23;;;9.05;;
34471;SDS011;20710;49.976;19.836;2022-10-17T16:17:56;14.73;;;8.98;;
34471;SDS011;20710;49.976;19.836;2022-10-17T16:23:57;16.80;;;8.85;;
34471;SDS011;20710;49.976;19.836;2022-10-17T16:30:00;16.62;;;9.65;;
34471;SDS011;20710;49.976;19.836;2022-10-17T16:36:01;15.15;;;8.60;;
34471;SDS011;20710;49.976;19.836;2022-10-17T16:42:03;19.80;;;9.90;;
34471;SDS011;20710;49.976;19.836;2022-10-17T16:48:04;21.07;;;9.33;;
34471;SDS011;20710;49.976;19.836;2022-10-17T16:54:08;18.57;;;8.85;;
34471;SDS011;20710;49.976;19.836;2022-10-17T17:00:10;22.65;;;12.68;;
34471;SDS011;20710;49.976;19.836;2022-10-17T17:06:14;22.32;;;10.63;;
34471;SDS011;20710;49.976;19.836;2022-10-17T17:12:21;16.62;;;8.95;;
34471;SDS011;20710;49.976;19.836;2022-10-17T17:18:38;17.98;;;10.65;;
34471;SDS011;20710;49.976;19.836;2022-10-17T17:24:36;29.23;;;11.12;;
34471;SDS011;20710;49.976;19.836;2022-10-17T17:30:38;27.65;;;13.80;;
34471;SDS011;20710;49.976;19.836;2022-10-17T17:36:39;26.82;;;15.30;;
34471;SDS011;20710;49.976;19.836;2022-10-17T17:42:42;28.17;;;15.85;;
